createdAt,value
2023-05-14T00:00:55.260Z,12.88
2023-05-14T00:03:21.888Z,12.95
2023-05-14T00:05:48.655Z,15.00
2023-05-14T00:08:15.429Z,13.30
2023-05-14T00:10:42.032Z,13.52
2023-05-14T00:13:08.739Z,12.63
2023-05-14T00:15:35.392Z,12.57
2023-05-14T00:18:02.188Z,14.88
2023-05-14T00:20:28.977Z,13.60
2023-05-14T00:22:55.720Z,17.88
2023-05-14T00:25:22.368Z,15.60
2023-05-14T00:27:48.975Z,11.98
2023-05-14T00:30:15.605Z,11.27
2023-05-14T00:32:42.224Z,14.63
2023-05-14T00:35:09.398Z,14.10
2023-05-14T00:37:36.479Z,15.00
2023-05-14T00:40:03.833Z,13.23
2023-05-14T00:42:30.466Z,13.82
2023-05-14T00:44:57.080Z,13.85
2023-05-14T00:47:24.036Z,13.32
2023-05-14T00:49:50.753Z,13.30
2023-05-14T00:52:18.128Z,13.57
2023-05-14T00:54:47.047Z,13.18
2023-05-14T00:57:13.856Z,10.50
2023-05-14T00:59:41.836Z,12.60
2023-05-14T01:02:08.563Z,14.38
2023-05-14T01:04:35.409Z,12.70
2023-05-14T01:07:20.198Z,12.13
2023-05-14T01:10:08.416Z,12.38
2023-05-14T01:12:59.592Z,14.57
2023-05-14T01:15:30.818Z,12.23
2023-05-14T01:18:01.867Z,11.88
2023-05-14T01:20:28.509Z,13.18
2023-05-14T01:22:55.188Z,14.73
2023-05-14T01:25:21.890Z,10.88
2023-05-14T01:28:09.439Z,12.50
2023-05-14T01:30:38.188Z,11.95
2023-05-14T01:33:12.008Z,11.57
2023-05-14T01:35:40.290Z,10.95
2023-05-14T01:38:09.680Z,12.20
2023-05-14T01:40:37.123Z,11.15
2023-05-14T01:43:05.074Z,12.82
2023-05-14T01:45:35.372Z,12.15
2023-05-14T01:48:02.322Z,11.63
2023-05-14T01:50:29.006Z,11.93
2023-05-14T01:52:56.809Z,10.35
2023-05-14T01:55:26.973Z,10.52
2023-05-14T01:57:54.176Z,10.68
2023-05-14T02:00:24.020Z,10.38
2023-05-14T02:02:50.964Z,10.93
2023-05-14T02:05:17.752Z,10.02
2023-05-14T02:07:44.603Z,10.48
2023-05-14T02:10:11.432Z,11.00
2023-05-14T02:12:38.226Z,9.93
2023-05-14T02:15:05.200Z,10.18
2023-05-14T02:17:31.879Z,10.57
2023-05-14T02:19:58.517Z,9.40
2023-05-14T02:22:25.163Z,10.40
2023-05-14T02:24:51.890Z,10.77
2023-05-14T02:27:18.657Z,11.18
2023-05-14T02:29:45.242Z,9.45
2023-05-14T02:32:11.931Z,9.60
2023-05-14T02:34:38.761Z,11.63
2023-05-14T02:37:05.669Z,9.68
2023-05-14T02:39:32.333Z,10.18
2023-05-14T02:41:59.076Z,9.43
2023-05-14T02:44:25.712Z,10.23
2023-05-14T02:46:52.352Z,9.98
2023-05-14T02:49:18.989Z,8.52
2023-05-14T02:51:45.696Z,11.20
2023-05-14T02:54:12.324Z,9.68
2023-05-14T02:56:38.948Z,10.00
2023-05-14T02:59:05.719Z,10.50
2023-05-14T03:01:32.832Z,10.63
2023-05-14T03:03:59.800Z,11.85
2023-05-14T03:06:26.525Z,11.52
2023-05-14T03:08:53.185Z,10.55
2023-05-14T03:11:19.811Z,10.73
2023-05-14T03:13:46.636Z,9.10
2023-05-14T03:16:13.390Z,9.85
2023-05-14T03:18:40.152Z,12.20
2023-05-14T03:21:06.815Z,10.55
2023-05-14T03:23:35.057Z,9.52
2023-05-14T03:26:02.290Z,8.93
2023-05-14T03:28:28.969Z,11.30
2023-05-14T03:30:55.810Z,9.68
2023-05-14T03:33:22.896Z,9.57
2023-05-14T03:35:49.540Z,9.90
2023-05-14T03:38:16.393Z,10.27
2023-05-14T03:40:45.279Z,9.45
2023-05-14T03:43:11.925Z,9.00
2023-05-14T03:45:38.824Z,9.88
2023-05-14T03:48:05.945Z,9.52
2023-05-14T03:50:32.692Z,9.48
2023-05-14T03:52:59.344Z,8.95
2023-05-14T03:55:25.973Z,9.45
2023-05-14T03:57:52.748Z,9.50
2023-05-14T04:00:19.647Z,9.68
2023-05-14T04:02:46.376Z,8.90
2023-05-14T04:05:13.015Z,9.20
2023-05-14T04:07:39.667Z,9.70
2023-05-14T04:10:06.943Z,8.95
2023-05-14T04:12:33.560Z,9.15
2023-05-14T04:15:00.229Z,10.18
2023-05-14T04:17:27.069Z,10.60
2023-05-14T04:19:53.752Z,9.15
2023-05-14T04:22:20.447Z,9.93
2023-05-14T04:24:47.078Z,9.65
2023-05-14T04:27:23.738Z,9.30
2023-05-14T04:29:50.705Z,10.20
2023-05-14T04:32:18.141Z,8.00
2023-05-14T04:34:45.053Z,8.63
2023-05-14T04:37:11.716Z,8.98
2023-05-14T04:39:38.573Z,8.27
2023-05-14T04:42:06.806Z,6.35
2023-05-14T04:44:34.954Z,9.20
2023-05-14T04:47:02.231Z,8.73
2023-05-14T04:49:29.201Z,6.97
2023-05-14T04:51:55.928Z,7.70
2023-05-14T04:54:22.764Z,9.90
2023-05-14T04:56:50.825Z,8.43
2023-05-14T04:59:17.445Z,6.30
2023-05-14T05:01:44.251Z,8.35
2023-05-14T05:04:11.005Z,8.27
2023-05-14T05:06:37.736Z,8.07
2023-05-14T05:09:04.649Z,8.90
2023-05-14T05:11:31.252Z,9.55
2023-05-14T05:13:57.852Z,8.23
2023-05-14T05:16:24.475Z,7.88
2023-05-14T05:18:51.179Z,8.63
2023-05-14T05:21:17.889Z,9.07
2023-05-14T05:23:44.461Z,8.65
2023-05-14T05:26:11.070Z,10.32
2023-05-14T05:28:37.679Z,8.30
2023-05-14T05:31:04.445Z,8.20
2023-05-14T05:33:31.207Z,8.02
2023-05-14T05:35:57.792Z,7.28
2023-05-14T05:38:24.441Z,7.80
2023-05-14T05:40:51.164Z,8.73
2023-05-14T05:43:18.092Z,7.60
2023-05-14T05:45:46.041Z,6.35
2023-05-14T05:48:12.798Z,7.05
2023-05-14T05:50:39.427Z,7.57
2023-05-14T05:53:06.059Z,8.60
2023-05-14T05:55:32.713Z,8.18
2023-05-14T05:57:59.383Z,8.18
2023-05-14T06:00:26.285Z,7.85
2023-05-14T06:02:53.229Z,8.45
2023-05-14T06:05:20.064Z,7.18
2023-05-14T06:07:46.719Z,8.02
2023-05-14T06:10:13.338Z,6.40
2023-05-14T06:12:40.498Z,6.22
2023-05-14T06:15:07.665Z,7.78
2023-05-14T06:17:34.433Z,8.65
2023-05-14T06:20:01.053Z,8.35
2023-05-14T06:22:27.695Z,7.97
2023-05-14T06:24:54.312Z,7.60
2023-05-14T06:27:21.005Z,7.72
2023-05-14T06:29:47.597Z,5.93
2023-05-14T06:32:15.747Z,7.13
2023-05-14T06:34:42.923Z,7.70
2023-05-14T06:37:10.552Z,6.85
2023-05-14T06:39:37.949Z,7.93
2023-05-14T06:42:05.136Z,7.38
2023-05-14T06:44:31.989Z,6.82
2023-05-14T06:46:58.618Z,7.43
2023-05-14T06:49:25.305Z,7.43
2023-05-14T06:51:52.365Z,7.40
2023-05-14T06:54:20.517Z,7.40
2023-05-14T06:56:47.256Z,7.65
2023-05-14T06:59:13.934Z,7.90
2023-05-14T07:01:41.052Z,8.30
2023-05-14T07:04:07.970Z,7.75
2023-05-14T07:06:34.876Z,7.60
2023-05-14T07:09:01.996Z,7.43
2023-05-14T07:11:28.761Z,7.07
2023-05-14T07:13:55.593Z,7.82
2023-05-14T07:16:22.342Z,7.35
2023-05-14T07:18:49.000Z,8.05
2023-05-14T07:21:15.733Z,8.20
2023-05-14T07:23:42.371Z,8.20
2023-05-14T07:26:09.063Z,8.13
2023-05-14T07:28:35.845Z,7.50
2023-05-14T07:31:05.050Z,7.57
2023-05-14T07:33:31.825Z,8.10
2023-05-14T07:35:58.626Z,6.55
2023-05-14T07:38:25.392Z,7.97
2023-05-14T07:40:52.017Z,8.32
2023-05-14T07:43:18.660Z,8.32
2023-05-14T07:45:45.641Z,7.97
2023-05-14T07:48:12.376Z,7.78
2023-05-14T07:50:40.490Z,8.00
2023-05-14T07:53:07.087Z,7.40
2023-05-14T07:55:33.760Z,8.60
2023-05-14T07:58:01.240Z,8.13
2023-05-14T08:00:27.976Z,8.13
2023-05-14T08:02:55.759Z,6.72
2023-05-14T08:05:22.656Z,6.82
2023-05-14T08:07:49.351Z,7.93
2023-05-14T08:10:15.961Z,10.25
2023-05-14T08:12:42.903Z,9.30
2023-05-14T08:15:09.974Z,8.50
2023-05-14T08:17:36.666Z,9.20
2023-05-14T08:20:03.573Z,9.32
2023-05-14T08:22:30.162Z,9.15
2023-05-14T08:24:56.817Z,9.35
2023-05-14T08:27:23.419Z,9.50
2023-05-14T08:29:50.087Z,9.82
2023-05-14T08:32:23.478Z,9.45
2023-05-14T08:34:51.861Z,8.55
2023-05-14T08:37:18.696Z,8.80
2023-05-14T08:39:45.396Z,8.75
2023-05-14T08:42:13.788Z,9.10
2023-05-14T08:44:50.142Z,9.07
2023-05-14T08:47:20.886Z,9.52
2023-05-14T08:49:52.584Z,8.43
2023-05-14T08:52:22.394Z,9.45
2023-05-14T08:54:51.152Z,9.25
2023-05-14T08:57:20.245Z,9.05
2023-05-14T08:59:47.363Z,8.40
2023-05-14T09:02:17.415Z,9.38
2023-05-14T09:04:44.939Z,8.32
2023-05-14T09:07:12.006Z,8.20
2023-05-14T09:09:38.826Z,7.80
2023-05-14T09:12:06.411Z,8.60
2023-05-14T09:14:33.496Z,8.35
2023-05-14T09:17:00.178Z,8.93
2023-05-14T09:19:27.076Z,9.43
2023-05-14T09:21:58.294Z,9.05
2023-05-14T09:24:29.086Z,8.52
2023-05-14T09:26:59.022Z,8.75
2023-05-14T09:29:26.583Z,8.60
2023-05-14T09:31:54.457Z,8.55
2023-05-14T09:34:25.333Z,9.65
2023-05-14T09:37:03.117Z,8.10
2023-05-14T09:39:30.725Z,10.15
2023-05-14T09:41:57.844Z,11.30
2023-05-14T09:44:25.665Z,11.35
2023-05-14T09:46:53.467Z,8.93
2023-05-14T09:49:20.952Z,10.95
2023-05-14T09:51:49.604Z,9.70
2023-05-14T09:54:16.877Z,9.85
2023-05-14T09:56:44.678Z,9.35
2023-05-14T09:59:11.496Z,11.07
2023-05-14T10:01:38.689Z,11.60
2023-05-14T10:04:08.033Z,14.13
2023-05-14T10:06:38.190Z,11.77
2023-05-14T10:09:09.971Z,9.32
2023-05-14T10:11:38.656Z,9.93
2023-05-14T10:14:09.353Z,9.15
2023-05-14T10:16:40.701Z,9.90
2023-05-14T10:19:12.036Z,10.98
2023-05-14T10:21:41.334Z,11.50
2023-05-14T10:24:09.468Z,11.07
2023-05-14T10:26:39.338Z,11.55
2023-05-14T10:29:08.368Z,12.43
2023-05-14T10:31:53.752Z,11.93
2023-05-14T10:34:38.273Z,12.48
2023-05-14T10:37:08.009Z,12.55
2023-05-14T10:39:41.515Z,13.25
2023-05-14T10:42:17.065Z,14.10
2023-05-14T10:45:02.856Z,13.52
2023-05-14T10:47:29.890Z,11.75
2023-05-14T10:49:59.445Z,9.43
2023-05-14T10:52:26.743Z,9.85
2023-05-14T10:54:55.969Z,7.25
2023-05-14T10:57:24.656Z,7.65
2023-05-14T10:59:56.790Z,6.82
2023-05-14T11:02:35.800Z,7.22
2023-05-14T11:05:15.836Z,6.68
2023-05-14T11:07:45.257Z,6.93
2023-05-14T11:10:16.988Z,6.93
2023-05-14T11:12:46.126Z,6.82
2023-05-14T11:15:16.473Z,7.13
2023-05-14T11:17:44.876Z,6.50
2023-05-14T11:20:12.170Z,6.07
2023-05-14T11:22:40.105Z,6.55
2023-05-14T11:25:07.802Z,5.82
2023-05-14T11:27:36.831Z,7.03
2023-05-14T11:30:04.096Z,6.63
2023-05-14T11:32:34.121Z,6.80
2023-05-14T11:35:00.875Z,6.57
2023-05-14T11:37:27.481Z,8.57
2023-05-14T11:39:55.972Z,7.38
2023-05-14T11:42:23.735Z,7.75
2023-05-14T11:44:52.046Z,10.55
2023-05-14T11:47:20.562Z,8.98
2023-05-14T11:49:48.617Z,9.63
2023-05-14T11:52:16.417Z,8.60
2023-05-14T11:54:44.419Z,8.93
2023-05-14T11:57:13.278Z,10.80
2023-05-14T11:59:40.322Z,10.55
2023-05-14T12:02:18.799Z,10.00
2023-05-14T12:04:50.722Z,8.30
2023-05-14T12:07:17.477Z,9.10
2023-05-14T12:09:49.416Z,7.85
2023-05-14T12:12:21.925Z,7.10
2023-05-14T12:14:49.633Z,7.67
2023-05-14T12:17:18.820Z,8.00
2023-05-14T12:19:47.561Z,8.07
2023-05-14T12:22:17.561Z,7.20
2023-05-14T12:24:52.509Z,7.70
2023-05-14T12:27:22.487Z,9.15
2023-05-14T12:29:49.221Z,8.02
2023-05-14T12:32:15.916Z,7.40
2023-05-14T12:34:42.794Z,6.93
2023-05-14T12:37:09.447Z,7.32
2023-05-14T12:39:36.222Z,6.60
2023-05-14T12:42:02.882Z,6.32
2023-05-14T12:44:29.582Z,7.10
2023-05-14T12:46:56.385Z,6.18
2023-05-14T12:49:23.116Z,7.68
2023-05-14T12:51:52.609Z,6.13
2023-05-14T12:54:23.445Z,6.63
2023-05-14T12:56:50.460Z,6.18
2023-05-14T12:59:17.125Z,6.07
2023-05-14T13:01:43.759Z,5.40
2023-05-14T13:04:13.900Z,5.18
2023-05-14T13:06:40.962Z,5.38
2023-05-14T13:09:08.812Z,4.85
2023-05-14T13:11:35.848Z,4.55
2023-05-14T13:14:03.161Z,4.00
2023-05-14T13:16:30.314Z,4.63
2023-05-14T13:18:57.112Z,4.13
2023-05-14T13:21:23.868Z,4.57
2023-05-14T13:23:50.748Z,4.00
2023-05-14T13:26:17.474Z,4.03
2023-05-14T13:28:44.696Z,4.40
2023-05-14T13:31:13.164Z,4.28
2023-05-14T13:33:44.653Z,4.07
2023-05-14T13:36:13.592Z,3.75
2023-05-14T13:38:40.603Z,3.85
2023-05-14T13:41:07.289Z,3.60
2023-05-14T13:43:35.353Z,4.00
2023-05-14T13:46:03.281Z,3.20
2023-05-14T13:48:31.114Z,3.30
2023-05-14T13:50:57.959Z,3.65
2023-05-14T13:53:25.438Z,3.40
2023-05-14T13:55:58.595Z,3.10
2023-05-14T14:00:52.843Z,3.13
2023-05-14T14:03:19.884Z,3.20
2023-05-14T14:05:46.560Z,3.03
2023-05-14T14:10:48.595Z,2.83
2023-05-14T14:13:15.371Z,3.17
2023-05-14T14:15:42.714Z,2.90
2023-05-14T14:18:09.357Z,3.20
2023-05-14T14:20:36.339Z,2.88
2023-05-14T14:23:02.992Z,3.08
2023-05-14T14:25:29.607Z,3.33
2023-05-14T14:27:56.380Z,3.15
2023-05-14T14:30:22.972Z,2.80
2023-05-14T14:32:50.021Z,2.92
2023-05-14T14:35:18.174Z,2.80
2023-05-14T14:37:49.083Z,2.70
2023-05-14T14:40:16.711Z,2.65
2023-05-14T14:42:44.070Z,2.50
2023-05-14T14:45:11.655Z,2.88
2023-05-14T14:47:38.517Z,2.42
2023-05-14T14:50:06.255Z,3.75
2023-05-14T14:52:33.121Z,2.70
2023-05-14T14:54:59.720Z,3.00
2023-05-14T14:57:26.900Z,2.13
2023-05-14T14:59:53.590Z,2.97
2023-05-14T15:02:20.358Z,2.83
2023-05-14T15:04:47.002Z,2.53
2023-05-14T15:07:15.951Z,2.42
2023-05-14T15:09:42.692Z,2.42
2023-05-14T15:12:10.877Z,2.53
2023-05-14T15:14:37.554Z,2.17
2023-05-14T15:17:04.499Z,1.98
2023-05-14T15:19:32.362Z,2.13
2023-05-14T15:21:59.134Z,2.75
2023-05-14T15:24:26.278Z,2.40
2023-05-14T15:26:53.780Z,2.50
2023-05-14T15:29:20.569Z,2.90
2023-05-14T15:31:47.449Z,3.22
2023-05-14T15:34:14.199Z,2.90
2023-05-14T15:36:40.971Z,2.95
2023-05-14T15:39:10.314Z,2.70
2023-05-14T15:41:38.056Z,2.70
2023-05-14T15:44:04.961Z,2.08
2023-05-14T15:46:32.279Z,2.58
2023-05-14T15:48:58.917Z,2.20
2023-05-14T15:51:25.593Z,2.22
2023-05-14T15:53:54.216Z,2.47
2023-05-14T15:56:23.226Z,2.92
2023-05-14T15:58:49.985Z,2.60
2023-05-14T16:01:17.019Z,2.70
2023-05-14T16:03:43.846Z,2.90
2023-05-14T16:06:11.599Z,2.42
2023-05-14T16:08:38.647Z,2.85
2023-05-14T16:11:06.405Z,2.50
2023-05-14T16:13:33.810Z,2.30
2023-05-14T16:16:01.294Z,2.47
2023-05-14T16:18:28.055Z,2.58
2023-05-14T16:20:54.745Z,2.55
2023-05-14T16:23:21.633Z,2.33
2023-05-14T16:25:48.409Z,2.20
2023-05-14T16:28:15.212Z,2.55
2023-05-14T16:30:41.861Z,2.20
2023-05-14T16:33:08.503Z,2.20
2023-05-14T16:35:35.209Z,2.00
2023-05-14T16:38:01.828Z,2.53
2023-05-14T16:40:28.496Z,2.45
2023-05-14T16:42:55.109Z,2.45
2023-05-14T16:45:21.953Z,2.50
2023-05-14T16:47:48.812Z,2.03
2023-05-14T16:50:15.502Z,2.30
2023-05-14T16:52:42.313Z,2.20
2023-05-14T16:55:09.421Z,2.20
2023-05-14T16:57:36.084Z,2.40
2023-05-14T17:00:06.199Z,1.75
2023-05-14T17:02:33.677Z,2.30
2023-05-14T17:05:00.575Z,2.33
2023-05-14T17:07:27.414Z,2.13
2023-05-14T17:09:54.104Z,2.15
2023-05-14T17:12:20.789Z,2.75
2023-05-14T17:14:47.432Z,2.28
2023-05-14T17:17:14.054Z,2.00
2023-05-14T17:19:41.038Z,2.25
2023-05-14T17:22:07.645Z,2.25
2023-05-14T17:24:35.557Z,2.10
2023-05-14T17:27:02.216Z,3.30
2023-05-14T17:29:28.822Z,5.47
2023-05-14T17:31:55.671Z,2.35
2023-05-14T17:34:22.335Z,2.15
2023-05-14T17:36:49.004Z,3.35
2023-05-14T17:39:16.056Z,2.95
2023-05-14T17:41:42.794Z,2.83
2023-05-14T17:44:11.320Z,2.20
2023-05-14T17:46:39.447Z,1.98
2023-05-14T17:49:06.143Z,2.05
2023-05-14T17:51:32.859Z,1.88
2023-05-14T17:53:59.695Z,2.10
2023-05-14T17:56:26.278Z,2.30
2023-05-14T17:58:52.900Z,1.88
2023-05-14T18:01:19.574Z,1.77
2023-05-14T18:03:46.222Z,2.05
2023-05-14T18:06:13.033Z,1.90
2023-05-14T18:08:39.627Z,1.80
2023-05-14T18:11:06.342Z,2.10
2023-05-14T18:13:33.012Z,1.83
2023-05-14T18:16:00.775Z,1.95
2023-05-14T18:18:27.612Z,2.55
2023-05-14T18:20:54.280Z,2.53
2023-05-14T18:23:20.971Z,2.60
2023-05-14T18:25:48.270Z,2.35
2023-05-14T18:28:15.637Z,2.05
2023-05-14T18:30:43.566Z,2.47
2023-05-14T18:33:10.520Z,2.47
2023-05-14T18:35:37.366Z,2.08
2023-05-14T18:38:04.143Z,3.03
2023-05-14T18:40:30.788Z,2.80
2023-05-14T18:42:58.123Z,2.40
2023-05-14T18:45:25.072Z,2.33
2023-05-14T18:47:52.129Z,2.40
2023-05-14T18:50:19.034Z,2.30
2023-05-14T18:52:45.636Z,2.47
2023-05-14T18:55:12.300Z,2.50
2023-05-14T18:57:39.034Z,2.88
2023-05-14T19:00:06.504Z,2.80
2023-05-14T19:02:33.211Z,2.35
2023-05-14T19:04:59.888Z,2.40
2023-05-14T19:07:27.754Z,3.15
2023-05-14T19:09:54.396Z,3.00
2023-05-14T19:12:21.053Z,2.70
2023-05-14T19:14:47.651Z,4.03
2023-05-14T19:17:14.433Z,2.70
2023-05-14T19:19:41.121Z,2.75
2023-05-14T19:22:07.885Z,3.35
2023-05-14T19:24:34.584Z,3.20
2023-05-14T19:27:01.229Z,4.13
2023-05-14T19:29:27.852Z,3.60
2023-05-14T19:31:54.487Z,3.45
2023-05-14T19:34:21.586Z,2.90
2023-05-14T19:36:48.245Z,3.05
2023-05-14T19:39:14.836Z,2.90
2023-05-14T19:41:41.681Z,2.55
2023-05-14T19:44:08.308Z,2.70
2023-05-14T19:46:35.060Z,2.85
2023-05-14T19:49:01.687Z,2.63
2023-05-14T19:51:28.330Z,2.78
2023-05-14T19:53:54.980Z,2.53
2023-05-14T19:56:23.160Z,2.60
2023-05-14T19:58:51.102Z,3.00
2023-05-14T20:01:17.847Z,2.50
2023-05-14T20:03:44.550Z,2.35
2023-05-14T20:06:11.406Z,2.50
2023-05-14T20:08:38.056Z,2.58
2023-05-14T20:11:04.783Z,2.30
2023-05-14T20:13:36.505Z,2.40
2023-05-14T20:16:03.269Z,2.58
2023-05-14T20:18:30.029Z,2.50
2023-05-14T20:20:56.768Z,2.30
2023-05-14T20:23:23.373Z,2.78
2023-05-14T20:25:51.344Z,2.80
2023-05-14T20:28:18.037Z,2.40
2023-05-14T20:30:44.699Z,2.75
2023-05-14T20:33:12.969Z,2.30
2023-05-14T20:35:41.622Z,2.60
2023-05-14T20:38:08.236Z,2.30
2023-05-14T20:40:34.877Z,2.35
2023-05-14T20:43:01.926Z,2.28
2023-05-14T20:45:28.521Z,2.30
2023-05-14T20:47:55.266Z,2.03
2023-05-14T20:50:22.717Z,1.98
2023-05-14T20:52:49.346Z,2.50
2023-05-14T20:55:16.079Z,2.55
2023-05-14T20:57:43.594Z,2.08
2023-05-14T21:00:11.113Z,2.80
2023-05-14T21:02:37.991Z,2.50
2023-05-14T21:05:05.146Z,2.70
2023-05-14T21:07:31.820Z,2.50
2023-05-14T21:09:58.688Z,2.28
2023-05-14T21:12:25.328Z,2.70
2023-05-14T21:14:51.930Z,3.13
2023-05-14T21:17:18.568Z,2.85
2023-05-14T21:19:45.204Z,2.90
2023-05-14T21:22:12.799Z,2.85
2023-05-14T21:24:39.413Z,2.60
2023-05-14T21:27:06.184Z,3.05
2023-05-14T21:29:32.776Z,2.40
2023-05-14T21:31:59.451Z,2.40
2023-05-14T21:34:26.156Z,2.70
2023-05-14T21:36:53.040Z,2.58
2023-05-14T21:39:20.037Z,2.30
2023-05-14T21:41:46.660Z,2.50
2023-05-14T21:44:13.271Z,2.22
2023-05-14T21:46:39.999Z,2.33
2023-05-14T21:49:07.092Z,2.28
2023-05-14T21:51:33.763Z,2.40
2023-05-14T21:54:00.452Z,2.20
2023-05-14T21:56:27.386Z,2.47
2023-05-14T21:58:56.105Z,2.60
2023-05-14T22:01:23.178Z,2.83
2023-05-14T22:03:50.028Z,2.42
2023-05-14T22:06:16.787Z,3.20
2023-05-14T22:08:43.492Z,3.20
2023-05-14T22:11:10.115Z,2.70
2023-05-14T22:13:40.891Z,3.50
2023-05-14T22:16:13.734Z,3.92
2023-05-14T22:21:07.427Z,3.88
2023-05-14T22:23:34.268Z,3.80
2023-05-14T22:26:01.012Z,4.22
2023-05-14T22:28:27.649Z,4.18
2023-05-14T22:30:54.441Z,4.10
2023-05-14T22:33:21.145Z,3.55
2023-05-14T22:35:47.787Z,3.45
2023-05-14T22:38:14.409Z,3.40
2023-05-14T22:40:41.025Z,4.00
2023-05-14T22:43:07.676Z,3.70
2023-05-14T22:45:34.317Z,3.72
2023-05-14T22:48:00.938Z,3.03
2023-05-14T22:50:27.600Z,3.00
2023-05-14T22:52:54.204Z,3.15
2023-05-14T22:55:21.222Z,3.67
2023-05-14T22:57:47.986Z,3.72
2023-05-14T23:00:15.349Z,3.72
2023-05-14T23:02:42.119Z,3.70
2023-05-14T23:05:09.322Z,3.80
2023-05-14T23:07:36.040Z,3.60
2023-05-14T23:10:02.764Z,2.95
2023-05-14T23:12:29.449Z,3.70
2023-05-14T23:14:56.117Z,3.50
2023-05-14T23:17:22.851Z,3.33
2023-05-14T23:19:49.714Z,2.90
2023-05-14T23:22:16.457Z,3.30
2023-05-14T23:24:43.159Z,3.10
2023-05-14T23:27:11.421Z,3.25
2023-05-14T23:29:38.525Z,3.45
2023-05-14T23:32:05.585Z,3.20
2023-05-14T23:34:33.113Z,3.13
2023-05-14T23:36:59.850Z,3.17
2023-05-14T23:39:26.585Z,3.67
2023-05-14T23:41:53.193Z,3.45
2023-05-14T23:44:19.845Z,3.40
2023-05-14T23:46:46.584Z,3.55
2023-05-14T23:49:13.220Z,3.28
2023-05-14T23:51:39.812Z,3.47
2023-05-14T23:54:06.465Z,3.95
2023-05-14T23:56:33.701Z,3.95
2023-05-14T23:59:00.458Z,3.22
